Time;durP1;ratioP1;P1;durP2;ratioP2;P2;SDS_P1;SDS_P2;PMS_P1;PMS_P2;Temp;Humidity;BMP_temperature;BMP_pressure;BME280_temperature;BME280_humidity;BME280_pressure;Samples;Min_cycle;Max_cycle;Signal;HPM_P1;HPM_P2
2022/09/29 00:00:11;;;;;;;1999.90;999.90;;;;;;;8.29;100.00;93295.16;6261216;22;20174;-77
2022/09/29 00:02:37;;;;;;;1999.90;999.90;;;;;;;8.29;100.00;93289.72;6260753;22;20409;-73
2022/09/29 00:05:03;;;;;;;1999.90;999.90;;;;;;;8.37;100.00;93282.84;6261116;22;20171;-77
2022/09/29 00:07:31;;;;;;;1999.90;999.90;;;;;;;8.40;100.00;93295.56;6261264;22;20174;-77
2022/09/29 00:09:56;;;;;;;1999.90;999.90;;;;;;;8.44;100.00;93285.31;6261269;22;20166;-78
2022/09/29 00:12:22;;;;;;;1999.90;999.90;;;;;;;8.45;100.00;93286.84;6260471;22;20203;-78
2022/09/29 00:14:47;;;;;;;1999.90;999.90;;;;;;;8.48;100.00;93294.13;6260979;22;20170;-78
2022/09/29 00:17:13;;;;;;;1999.90;999.90;;;;;;;8.50;100.00;93286.28;6260549;22;20237;-79
2022/09/29 00:19:38;;;;;;;1999.90;999.90;;;;;;;8.52;100.00;93281.16;6260548;22;20182;-75
2022/09/29 00:22:04;;;;;;;1999.90;999.90;;;;;;;8.52;100.00;93285.84;6261135;22;20186;-79
2022/09/29 00:24:30;;;;;;;1999.90;999.90;;;;;;;8.48;100.00;93301.50;6260510;22;20416;-81
2022/09/29 00:26:55;;;;;;;1999.90;999.90;;;;;;;8.40;100.00;93298.28;6286848;22;20166;-72
2022/09/29 00:29:21;;;;;;;1999.90;999.90;;;;;;;8.42;100.00;93304.03;6260962;22;20384;-80
2022/09/29 00:31:46;;;;;;;1999.90;999.90;;;;;;;8.44;100.00;93298.94;6260650;22;20168;-76
2022/09/29 00:34:11;;;;;;;1999.90;999.90;;;;;;;8.48;100.00;93296.84;6260725;22;20178;-79
2022/09/29 00:36:37;;;;;;;1999.90;999.90;;;;;;;8.47;100.00;93284.44;6260082;22;20182;-78
2022/09/29 00:39:03;;;;;;;1999.90;999.90;;;;;;;8.48;100.00;93285.97;6260228;22;20168;-78
2022/09/29 00:41:32;;;;;;;1999.90;999.90;;;;;;;8.48;100.00;93285.97;6261189;22;20186;-77
2022/09/29 00:44:13;;;;;;;1999.90;999.90;;;;;;;8.48;100.00;93285.97;6260595;22;20177;-76
2022/09/29 00:46:53;;;;;;;1999.90;999.90;;;;;;;8.47;100.00;93284.44;6286669;22;20212;-73
2022/09/29 00:49:29;;;;;;;1999.90;999.90;;;;;;;8.47;100.00;93279.00;6286119;22;20225;-77
2022/09/29 00:51:57;;;;;;;1999.90;999.90;;;;;;;8.40;100.00;93283.91;6260614;22;20166;-77
2022/09/29 00:54:28;;;;;;;1999.90;999.90;;;;;;;8.35;100.00;93285.25;6261111;22;20171;-79
2022/09/29 00:56:55;;;;;;;1999.90;999.90;;;;;;;8.34;100.00;93280.25;6261113;22;20180;-82
2022/09/29 00:59:28;;;;;;;1999.90;999.90;;;;;;;8.27;100.00;93275.81;6260939;22;20215;-79
2022/09/29 01:01:53;;;;;;;1999.90;999.90;;;;;;;8.30;100.00;93269.50;6260855;22;20164;-77
2022/09/29 01:04:21;;;;;;;1999.90;999.90;;;;;;;8.33;100.00;93256.97;6261026;22;20172;-79
2022/09/29 01:06:56;;;;;;;1999.90;999.90;;;;;;;8.29;100.00;93246.22;6260411;22;20165;-76
2022/09/29 01:09:30;;;;;;;1999.90;999.90;;;;;;;8.17;100.00;93249.72;6260411;22;20194;-72
2022/09/29 01:11:59;;;;;;;1999.90;999.90;;;;;;;8.15;100.00;93252.13;6260338;22;20209;-73
2022/09/29 01:14:27;;;;;;;1999.90;999.90;;;;;;;8.11;100.00;93261.59;6260555;22;20193;-72
2022/09/29 01:16:52;;;;;;;1999.90;999.90;;;;;;;8.08;100.00;93263.22;6260941;22;20178;-72
2022/09/29 01:19:56;;;;;;;1999.90;999.90;;;;;;;7.98;100.00;93269.75;6260386;22;20193;-73
2022/09/29 01:22:25;;;;;;;1999.90;999.90;;;;;;;7.97;100.00;93257.38;6286393;22;20178;-72
2022/09/29 01:25:36;;;;;;;1999.90;999.90;;;;;;;7.99;100.00;93259.66;6285662;22;20198;-73
2022/09/29 01:28:16;;;;;;;1999.90;999.90;;;;;;;7.98;100.00;93264.34;6236685;22;20179;-73
2022/09/29 01:30:54;;;;;;;1999.90;999.90;;;;;;;7.99;100.00;93271.31;6285422;22;20154;-75
2022/09/29 01:33:26;;;;;;;1999.90;999.90;;;;;;;7.92;100.00;93266.09;6260040;22;20180;-75
2022/09/29 01:36:14;;;;;;;1999.90;999.90;;;;;;;7.96;100.00;93261.31;6261108;22;20220;-75
2022/09/29 01:38:51;;;;;;;1999.90;999.90;;;;;;;8.03;100.00;93266.50;6260209;22;20237;-76
2022/09/29 01:41:26;;;;;;;1999.90;999.90;;;;;;;8.05;100.00;93258.66;6260203;22;20564;-76
2022/09/29 01:43:58;;;;;;;1999.90;999.90;;;;;;;8.08;100.00;93260.50;6285852;22;20169;-75
2022/09/29 01:46:30;;;;;;;1999.90;999.90;;;;;;;8.09;100.00;93270.16;6260400;22;20478;-76
2022/09/29 01:48:57;;;;;;;1999.90;999.90;;;;;;;8.06;100.00;93249.34;6259869;22;20173;-76
2022/09/29 01:51:49;;;;;;;1999.90;999.90;;;;;;;8.05;100.00;93252.50;6260567;22;20176;-75
2022/09/29 01:54:20;;;;;;;1999.90;999.90;;;;;;;7.98;100.00;93248.03;6260766;22;20197;-73
2022/09/29 01:56:52;;;;;;;1999.90;999.90;;;;;;;7.96;100.00;93250.44;6260087;22;20179;-74
2022/09/29 01:59:27;;;;;;;1999.90;999.90;;;;;;;7.94;100.00;93258.25;6259882;22;20169;-75
2022/09/29 02:01:59;;;;;;;1999.90;999.90;;;;;;;7.94;100.00;93258.25;6260072;22;20165;-74
2022/09/29 02:04:30;;;;;;;1999.90;999.90;;;;;;;7.92;100.00;93260.66;6259727;22;20145;-73
2022/09/29 02:07:05;;;;;;;1999.90;999.90;;;;;;;7.97;100.00;93257.38;6260585;22;20171;-74
2022/09/29 02:09:36;;;;;;;1999.90;999.90;;;;;;;7.92;100.00;93259.91;6259787;22;20162;-74
2022/09/29 02:12:03;;;;;;;1999.90;999.90;;;;;;;7.95;100.00;93257.06;6260278;22;20197;-70
2022/09/29 02:14:35;;;;;;;1999.90;999.90;;;;;;;7.93;100.00;93261.41;6259925;22;20208;-74
2022/09/29 02:17:08;;;;;;;1999.90;999.90;;;;;;;7.93;100.00;93256.75;6260103;22;20178;-73
2022/09/29 02:19:37;;;;;;;1999.90;999.90;;;;;;;7.95;100.00;93259.03;6260409;22;20167;-73
2022/09/29 02:22:02;;;;;;;1999.90;999.90;;;;;;;7.94;100.00;93258.25;6259955;22;20167;-73
2022/09/29 02:24:28;;;;;;;1999.90;999.90;;;;;;;7.92;100.00;93252.50;6260125;22;20208;-72
2022/09/29 02:26:53;;;;;;;1999.90;999.90;;;;;;;7.91;100.00;93248.28;6259949;22;20170;-71
2022/09/29 02:29:19;;;;;;;1999.90;999.90;;;;;;;7.94;100.00;93255.53;6260303;22;20235;-74
2022/09/29 02:31:46;;;;;;;1999.90;999.90;;;;;;;7.92;100.00;93260.66;6260425;22;20174;-73
2022/09/29 02:34:16;;;;;;;1999.90;999.90;;;;;;;7.94;100.00;93262.94;6260104;22;20170;-72
2022/09/29 02:36:57;;;;;;;1999.90;999.90;;;;;;;7.94;100.00;93265.66;6259776;22;20198;-73
2022/09/29 02:39:26;;;;;;;1999.90;999.90;;;;;;;7.94;100.00;93257.50;6285425;22;20175;-71
2022/09/29 02:41:54;;;;;;;1999.90;999.90;;;;;;;7.96;100.00;93266.75;6285410;22;20164;-71
2022/09/29 02:44:38;;;;;;;1999.90;999.90;;;;;;;7.92;100.00;93273.47;6285292;22;20194;-71
2022/09/29 02:47:16;;;;;;;1999.90;999.90;;;;;;;7.90;100.00;93268.47;6285092;22;20175;-73
2022/09/29 02:50:00;;;;;;;1999.90;999.90;;;;;;;7.80;100.00;93260.69;6259569;22;20168;-71
2022/09/29 02:52:44;;;;;;;1999.90;999.90;;;;;;;7.88;100.00;93265.47;6285530;22;20203;-72
2022/09/29 02:55:27;;;;;;;1999.90;999.90;;;;;;;7.90;100.00;93268.47;6285440;22;20208;-73
2022/09/29 02:58:02;;;;;;;1999.90;999.90;;;;;;;7.92;100.00;93266.09;6260108;22;20214;-72
2022/09/29 03:00:27;;;;;;;1999.90;999.90;;;;;;;7.91;100.00;93259.16;6261128;22;20497;-74
2022/09/29 03:02:53;;;;;;;1999.90;999.90;;;;;;;7.94;100.00;93268.38;6260985;22;20187;-75
2022/09/29 03:05:20;;;;;;;1999.90;999.90;;;;;;;7.98;100.00;93271.75;6261272;22;20145;-72
2022/09/29 03:07:45;;;;;;;1999.90;999.90;;;;;;;7.90;100.00;93273.91;6261611;22;20215;-72
2022/09/29 03:10:12;;;;;;;1999.90;999.90;;;;;;;7.86;100.00;93267.84;6261503;22;20169;-79
2022/09/29 03:12:38;;;;;;;1999.90;999.90;;;;;;;7.84;100.00;93267.53;6260942;22;20193;-76
2022/09/29 03:15:04;;;;;;;1999.90;999.90;;;;;;;7.86;100.00;93262.41;6260829;22;20174;-76
2022/09/29 03:17:30;;;;;;;1999.90;999.90;;;;;;;7.91;100.00;93259.16;6260764;22;20187;-76
2022/09/29 03:19:56;;;;;;;1999.90;999.90;;;;;;;7.93;100.00;93264.91;6261143;22;20174;-74
2022/09/29 03:22:22;;;;;;;1999.90;999.90;;;;;;;7.92;100.00;93257.94;6260758;22;20173;-76
2022/09/29 03:24:47;;;;;;;1999.90;999.90;;;;;;;7.97;100.00;93246.50;6260935;22;20173;-76
2022/09/29 03:27:13;;;;;;;1999.90;999.90;;;;;;;8.00;100.00;93256.50;6260811;22;20175;-77
2022/09/29 03:29:38;;;;;;;1999.90;999.90;;;;;;;7.95;100.00;93254.38;6261201;22;20166;-77
2022/09/29 03:32:04;;;;;;;1999.90;999.90;;;;;;;7.95;100.00;93254.38;6286704;22;20169;-76
2022/09/29 03:34:30;;;;;;;1999.90;999.90;;;;;;;7.96;100.00;93255.88;6261307;22;20192;-77
2022/09/29 03:36:56;;;;;;;1999.90;999.90;;;;;;;8.02;100.00;93258.78;6261066;22;20181;-74
2022/09/29 03:39:22;;;;;;;1999.90;999.90;;;;;;;8.06;100.00;93259.44;6260840;22;20171;-75
2022/09/29 03:41:47;;;;;;;1999.90;999.90;;;;;;;8.05;100.00;93266.81;6261215;22;20171;-75
2022/09/29 03:44:13;;;;;;;1999.90;999.90;;;;;;;8.03;100.00;93250.19;6261170;22;20166;-76
2022/09/29 03:46:46;;;;;;;1999.90;999.90;;;;;;;8.04;100.00;93245.50;6261021;22;20209;-74
2022/09/29 03:49:12;;;;;;;1999.90;999.90;;;;;;;7.98;100.00;93248.03;6260897;22;20170;-76
2022/09/29 03:51:38;;;;;;;1999.90;999.90;;;;;;;8.02;100.00;93243.25;6260650;22;20230;-77
2022/09/29 03:54:04;;;;;;;1999.90;999.90;;;;;;;8.05;100.00;93247.78;6260997;22;20185;-78
2022/09/29 03:56:29;;;;;;;1999.90;999.90;;;;;;;8.08;100.00;93255.06;6260590;22;20239;-72
2022/09/29 03:58:55;;;;;;;1999.90;999.90;;;;;;;8.09;100.00;93251.16;6260955;22;20164;-77
2022/09/29 04:01:20;;;;;;;1999.90;999.90;;;;;;;8.10;100.00;93243.75;6261246;22;20166;-78
2022/09/29 04:03:46;;;;;;;1999.90;999.90;;;;;;;8.14;100.00;93250.59;6260933;22;20151;-75
2022/09/29 04:06:11;;;;;;;1999.90;999.90;;;;;;;8.19;100.00;93255.47;6286409;22;20177;-79
2022/09/29 04:08:37;;;;;;;1999.90;999.90;;;;;;;8.24;100.00;93257.69;6260807;22;20230;-77
2022/09/29 04:11:03;;;;;;;1999.90;999.90;;;;;;;8.28;100.00;93254.81;6260445;22;20194;-76
2022/09/29 04:13:29;;;;;;;1999.90;999.90;;;;;;;8.28;100.00;93255.59;6260689;22;20165;-78
2022/09/29 04:15:59;;;;;;;1999.90;999.90;;;;;;;8.27;100.00;93264.94;6260680;22;20230;-75
2022/09/29 04:18:24;;;;;;;1999.90;999.90;;;;;;;8.29;100.00;93259.06;6260827;22;20173;-75
2022/09/29 04:20:50;;;;;;;1999.90;999.90;;;;;;;8.29;100.00;93254.38;6260660;22;20235;-73
2022/09/29 04:23:16;;;;;;;1999.90;999.90;;;;;;;8.30;100.00;93258.63;6260944;22;20235;-73
2022/09/29 04:25:44;;;;;;;1999.90;999.90;;;;;;;8.30;100.00;93255.91;6260682;22;20473;-72
2022/09/29 04:28:10;;;;;;;1999.90;999.90;;;;;;;8.29;100.00;93253.63;6260488;22;20185;-75
2022/09/29 04:30:36;;;;;;;1999.90;999.90;;;;;;;8.27;100.00;93254.06;6260785;22;20385;-75
2022/09/29 04:33:01;;;;;;;1999.90;999.90;;;;;;;8.23;100.00;93253.41;6260378;22;20178;-75
2022/09/29 04:35:26;;;;;;;1999.90;999.90;;;;;;;8.16;100.00;93250.16;6260546;22;20175;-74
2022/09/29 04:37:58;;;;;;;1999.90;999.90;;;;;;;8.16;100.00;93247.44;6260691;22;20186;-73
2022/09/29 04:40:24;;;;;;;1999.90;999.90;;;;;;;8.14;100.00;93255.28;6261047;22;20173;-73
2022/09/29 04:42:50;;;;;;;1999.90;999.90;;;;;;;8.12;100.00;93263.13;6260257;22;20190;-73
2022/09/29 04:45:15;;;;;;;1999.90;999.90;;;;;;;8.09;100.00;93259.31;6260605;22;20170;-74
2022/09/29 04:47:41;;;;;;;1999.90;999.90;;;;;;;8.11;100.00;93251.47;6260799;22;20224;-74
2022/09/29 04:50:08;;;;;;;1999.90;999.90;;;;;;;8.10;100.00;93249.97;6260560;22;20189;-74
2022/09/29 04:52:34;;;;;;;1999.90;999.90;;;;;;;8.10;100.00;93244.53;6260465;22;20162;-74
2022/09/29 04:55:00;;;;;;;1999.90;999.90;;;;;;;8.11;100.00;93245.28;6261337;22;20225;-73
2022/09/29 04:57:25;;;;;;;1999.90;999.90;;;;;;;8.12;100.00;93242.13;6260594;22;20179;-73
2022/09/29 04:59:50;;;;;;;1999.90;999.90;;;;;;;8.10;100.00;93232.88;6260175;22;20192;-73
2022/09/29 05:02:18;;;;;;;1999.90;999.90;;;;;;;8.09;100.00;93245.72;6260236;22;20155;-73
2022/09/29 05:04:44;;;;;;;1999.90;999.90;;;;;;;8.11;100.00;93245.28;6260741;22;20220;-73
2022/09/29 05:07:09;;;;;;;1999.90;999.90;;;;;;;8.05;100.00;93234.19;6260605;22;20170;-74
2022/09/29 05:09:34;;;;;;;1999.90;999.90;;;;;;;7.98;100.00;93239.88;6260100;22;20178;-75
2022/09/29 05:12:00;;;;;;;1999.90;999.90;;;;;;;7.95;100.00;93238.06;6260224;22;20234;-73
2022/09/29 05:14:26;;;;;;;1999.90;999.90;;;;;;;7.93;100.00;93245.88;6260661;22;20171;-74
2022/09/29 05:16:53;;;;;;;1999.90;999.90;;;;;;;7.88;100.00;93238.28;6260773;22;20181;-74
2022/09/29 05:19:19;;;;;;;1999.90;999.90;;;;;;;7.86;100.00;93242.66;6260156;22;20165;-73
2022/09/29 05:21:45;;;;;;;1999.90;999.90;;;;;;;7.85;100.00;93233.72;6260265;22;20220;-72
2022/09/29 05:24:11;;;;;;;1999.90;999.90;;;;;;;7.90;100.00;93227.72;6259827;22;20178;-76
2022/09/29 05:26:36;;;;;;;1999.90;999.90;;;;;;;7.91;100.00;93226.56;6259933;22;20170;-73
2022/09/29 05:29:02;;;;;;;1999.90;999.90;;;;;;;7.92;100.00;93233.50;6260477;22;20174;-73
2022/09/29 05:31:27;;;;;;;1999.90;999.90;;;;;;;7.95;100.00;93243.50;6260104;22;20169;-72
2022/09/29 05:33:55;;;;;;;1999.90;999.90;;;;;;;7.93;100.00;93235.00;6260392;22;20250;-72
2022/09/29 05:36:20;;;;;;;1999.90;999.90;;;;;;;7.97;100.00;93235.66;6259960;22;20181;-72
2022/09/29 05:38:46;;;;;;;1999.90;999.90;;;;;;;7.96;100.00;93236.84;6260484;22;20208;-71
2022/09/29 05:41:12;;;;;;;1999.90;999.90;;;;;;;7.90;100.00;93229.69;6260477;22;20196;-74
2022/09/29 05:43:38;;;;;;;1999.90;999.90;;;;;;;7.84;100.00;93226.78;6259956;22;20177;-76
2022/09/29 05:46:06;;;;;;;1999.90;999.90;;;;;;;7.89;100.00;93228.94;6259737;22;20180;-76
2022/09/29 05:48:32;;;;;;;1999.90;999.90;;;;;;;7.90;100.00;93226.97;6260342;22;20173;-77
2022/09/29 05:50:58;;;;;;;1999.90;999.90;;;;;;;7.83;100.00;93225.25;6259904;22;20170;-73
2022/09/29 05:53:24;;;;;;;1999.90;999.90;;;;;;;7.83;100.00;93224.50;6260069;22;20192;-72
2022/09/29 05:55:50;;;;;;;1999.90;999.90;;;;;;;7.85;100.00;93244.59;6259887;22;20165;-71
2022/09/29 05:58:15;;;;;;;1999.90;999.90;;;;;;;7.92;100.00;93238.94;6260130;22;20166;-73
2022/09/29 06:00:41;;;;;;;1999.90;999.90;;;;;;;7.99;100.00;93233.25;6259741;22;20170;-74
2022/09/29 06:03:07;;;;;;;1999.90;999.90;;;;;;;8.06;100.00;93227.59;6260255;22;20193;-73
2022/09/29 06:05:32;;;;;;;1999.90;999.90;;;;;;;8.11;100.00;93232.44;6259912;22;20182;-71
2022/09/29 06:08:02;;;;;;;1999.90;999.90;;;;;;;8.17;100.00;93227.97;6259772;22;20188;-73
2022/09/29 06:10:27;;;;;;;1999.90;999.90;;;;;;;8.26;100.00;93219.91;6260172;22;20170;-74
2022/09/29 06:12:53;;;;;;;1999.90;999.90;;;;;;;8.29;100.00;93224.47;6285147;22;20175;-73
2022/09/29 06:15:18;;;;;;;1999.90;999.90;;;;;;;8.32;100.00;93218.16;6259523;22;20181;-74
2022/09/29 06:17:43;;;;;;;1999.90;999.90;;;;;;;8.26;100.00;93225.34;6259714;22;20186;-73
2022/09/29 06:20:09;;;;;;;1999.90;999.90;;;;;;;8.36;100.00;93218.78;6259605;22;20359;-74
2022/09/29 06:22:35;;;;;;;1999.90;999.90;;;;;;;8.44;100.00;93214.63;6259060;22;20178;-72
2022/09/29 06:25:00;;;;;;;1999.90;999.90;;;;;;;8.50;100.00;93223.75;6259370;22;20202;-72
2022/09/29 06:27:25;;;;;;;1999.90;999.90;;;;;;;8.51;100.00;93213.59;6259507;22;20166;-72
2022/09/29 06:29:51;;;;;;;1999.90;999.90;;;;;;;8.59;100.00;93203.97;6260361;22;20231;-75
2022/09/29 06:32:16;;;;;;;1999.90;999.90;;;;;;;8.68;100.00;93202.09;6260403;22;20148;-76
2022/09/29 06:37:35;;;;;;;1999.90;999.90;;;;;;;8.81;100.00;93197.31;6287877;22;20182;-76
2022/09/29 06:40:03;;;;;;;1999.90;999.90;;;;;;;9.04;100.00;93185.19;6260446;22;20192;-76
2022/09/29 06:42:29;;;;;;;1999.90;999.90;;;;;;;9.31;100.00;93182.56;6260924;22;20187;-75
2022/09/29 06:44:54;;;;;;;1999.90;999.90;;;;;;;9.55;100.00;93181.56;6260943;22;20165;-74
2022/09/29 06:47:20;;;;;;;1999.90;999.90;;;;;;;9.56;100.00;93183.13;6261262;22;20172;-73
2022/09/29 06:49:45;;;;;;;1999.90;999.90;;;;;;;9.69;100.00;93172.09;6260874;22;20375;-75
2022/09/29 06:52:10;;;;;;;1999.90;999.90;;;;;;;9.70;100.00;93174.34;6260772;22;20174;-76
2022/09/29 06:54:36;;;;;;;1999.90;999.90;;;;;;;9.72;100.00;93176.63;6261069;22;20171;-77
2022/09/29 06:57:01;;;;;;;1999.90;999.90;;;;;;;9.78;100.00;93183.75;6260681;22;20176;-75
2022/09/29 06:59:27;;;;;;;1999.90;999.90;;;;;;;9.65;100.00;93180.41;6260848;22;20164;-75
2022/09/29 07:01:52;;;;;;;1999.90;999.90;;;;;;;9.62;100.00;93181.28;6261106;22;20160;-75
2022/09/29 07:04:19;;;;;;;1999.90;999.90;;;;;;;9.58;100.00;93180.69;6260948;22;20196;-76
2022/09/29 07:06:45;;;;;;;1999.90;999.90;;;;;;;9.58;100.00;93182.66;6260616;22;20165;-75
2022/09/29 07:09:14;;;;;;;1999.90;999.90;;;;;;;9.64;100.00;93181.63;6260472;22;20282;-76
2022/09/29 07:11:40;;;;;;;1999.90;999.90;;;;;;;9.67;100.00;93180.72;6260991;22;20341;-75
2022/09/29 07:14:06;;;;;;;1999.90;999.90;;;;;;;9.73;100.00;93173.44;6260584;22;20175;-75
2022/09/29 07:16:31;;;;;;;1999.90;999.90;;;;;;;9.72;100.00;93171.16;6260807;22;20192;-77
2022/09/29 07:18:57;;;;;;;1999.90;999.90;;;;;;;9.70;100.00;93171.63;6260860;22;20169;-75
2022/09/29 07:21:22;;;;;;;1999.90;999.90;;;;;;;9.73;100.00;93176.16;6260878;22;20206;-76
2022/09/29 07:23:48;;;;;;;1999.90;999.90;;;;;;;9.70;100.00;93185.25;6260798;22;20180;-76
2022/09/29 07:26:18;;;;;;;1999.90;999.90;;;;;;;9.68;100.00;93190.41;6260793;22;20180;-76
2022/09/29 07:28:44;;;;;;;1999.90;999.90;;;;;;;9.88;100.00;93176.34;6260747;22;20171;-74
2022/09/29 07:31:14;;;;;;;1999.90;999.90;;;;;;;9.86;100.00;93178.75;6261308;22;20189;-74
2022/09/29 07:33:40;;;;;;;1999.90;999.90;;;;;;;9.93;100.00;93173.78;6261126;22;20164;-75
2022/09/29 07:36:05;;;;;;;1999.90;999.90;;;;;;;10.06;100.00;93177.13;6260818;22;20180;-76
2022/09/29 07:38:31;;;;;;;1999.90;999.90;;;;;;;10.07;100.00;93173.22;6260680;22;20175;-76
2022/09/29 07:41:05;;;;;;;1999.90;999.90;;;;;;;10.06;100.00;93171.69;6260657;22;20211;-76
2022/09/29 07:43:31;;;;;;;1999.90;999.90;;;;;;;10.09;100.00;93172.75;6261063;22;20218;-78
2022/09/29 07:45:56;;;;;;;1999.90;999.90;;;;;;;10.14;100.00;93172.91;6260828;22;20190;-78
2022/09/29 07:48:22;;;;;;;1999.90;999.90;;;;;;;10.17;100.00;93175.94;6261490;22;20214;-78
2022/09/29 07:50:47;;;;;;;1999.90;999.90;;;;;;;10.01;100.00;93175.00;6260867;22;20223;-78
2022/09/29 07:53:13;;;;;;;1999.90;999.90;;;;;;;10.24;100.00;93167.47;6260451;22;20172;-78
2022/09/29 07:55:39;;;;;;;1999.90;999.90;;;;;;;10.35;100.00;93167.75;6261194;22;20137;-76
2022/09/29 07:58:05;;;;;;;1999.90;999.90;;;;;;;10.33;100.00;93172.91;6260960;22;20348;-76
2022/09/29 08:00:31;;;;;;;1999.90;999.90;;;;;;;10.38;100.00;93175.03;6260874;22;20173;-76
2022/09/29 08:03:06;;;;;;;1999.90;999.90;;;;;;;10.50;100.00;93165.91;6261249;22;20172;-73
2022/09/29 08:05:32;;;;;;;1999.90;999.90;;;;;;;10.41;100.00;93174.13;6260383;22;20168;-73
2022/09/29 08:08:03;;;;;;;1999.90;999.90;;;;;;;10.61;100.00;93175.16;6260518;22;20499;-72
2022/09/29 08:10:30;;;;;;;1999.90;999.90;;;;;;;10.50;100.00;93176.84;6260729;22;20167;-72
2022/09/29 08:12:55;;;;;;;1999.90;999.90;;;;;;;10.45;100.00;93185.63;6261301;22;20184;-74
2022/09/29 08:15:22;;;;;;;1999.90;999.90;;;;;;;10.54;100.00;93182.88;6261154;22;20163;-73
2022/09/29 08:17:47;;;;;;;1999.90;999.90;;;;;;;10.89;100.00;93170.41;6260610;22;20180;-74
2022/09/29 08:20:12;;;;;;;1999.90;999.90;;;;;;;11.03;100.00;93165.03;6260382;22;20280;-73
2022/09/29 08:22:38;;;;;;;1999.90;999.90;;;;;;;10.70;100.00;93168.94;6260973;22;20132;-72
2022/09/29 08:25:03;;;;;;;1999.90;999.90;;;;;;;10.84;100.00;93168.28;6260287;22;20230;-72
2022/09/29 08:27:29;;;;;;;1999.90;999.90;;;;;;;11.19;100.00;93166.66;6260651;22;20176;-73
2022/09/29 08:29:55;;;;;;;1999.90;999.90;;;;;;;11.15;100.00;93160.59;6260551;22;20178;-72
2022/09/29 08:32:21;;;;;;;1999.90;999.90;;;;;;;11.30;100.00;93156.00;6260506;22;20169;-73
2022/09/29 08:34:46;;;;;;;1999.90;999.90;;;;;;;11.44;100.00;93145.13;6260458;22;20224;-72
2022/09/29 08:37:12;;;;;;;1999.90;999.90;;;;;;;11.69;100.00;93141.97;6286058;22;20180;-72
2022/09/29 08:39:38;;;;;;;1999.90;999.90;;;;;;;11.15;100.00;93134.03;6260142;22;20177;-71
2022/09/29 08:42:22;;;;;;;1999.90;999.90;;;;;;;11.22;100.00;93117.31;6261061;22;20165;-72
2022/09/29 08:44:55;;;;;;;1999.90;999.90;;;;;;;11.27;100.00;93118.66;6260381;22;20475;-71
2022/09/29 08:47:50;;;;;;;1999.90;999.90;;;;;;;11.33;100.00;93109.34;6261020;22;20260;-72
2022/09/29 08:50:27;;;;;;;1999.90;999.90;;;;;;;11.30;100.00;93117.72;6241145;22;20180;-72
2022/09/29 08:52:58;;;;;;;1999.90;999.90;;;;;;;11.33;100.00;93119.53;6260424;22;20170;-72
2022/09/29 08:55:49;;;;;;;1999.90;999.90;;;;;;;11.44;100.00;93111.59;6260477;22;20175;-72
2022/09/29 08:58:16;;;;;;;1999.90;999.90;;;;;;;11.33;100.00;93111.34;6256831;22;20213;-72
2022/09/29 09:00:53;;;;;;;1999.90;999.90;;;;;;;11.21;100.00;93120.50;6260713;22;20174;-72
2022/09/29 09:03:29;;;;;;;1999.90;999.90;;;;;;;11.17;100.00;93125.38;6286515;22;20201;-72
2022/09/29 09:06:30;;;;;;;1999.90;999.90;;;;;;;10.90;100.00;93144.59;6285824;22;20173;-71
2022/09/29 09:09:07;;;;;;;1999.90;999.90;;;;;;;10.76;100.00;93129.63;6259665;22;20174;-72
2022/09/29 09:12:04;;;;;;;1999.90;999.90;;;;;;;10.78;100.00;93137.38;6260957;22;20170;-72
2022/09/29 09:14:53;;;;;;;1999.90;999.90;;;;;;;10.74;100.00;93132.06;6260802;22;20237;-72
2022/09/29 09:17:34;;;;;;;1999.90;999.90;;;;;;;10.85;100.00;93128.84;6260562;22;20187;-72
2022/09/29 09:20:10;;;;;;;1999.90;999.90;;;;;;;10.95;100.00;93143.97;6286454;22;20171;-71
2022/09/29 09:22:56;;;;;;;1999.90;999.90;;;;;;;10.98;100.00;93156.72;6260243;22;20187;-71
2022/09/29 09:25:38;;;;;;;1999.90;999.90;;;;;;;10.91;100.00;93151.56;6260170;22;20172;-71
2022/09/29 09:28:36;;;;;;;1999.90;999.90;;;;;;;11.07;100.00;93181.28;6286173;22;20173;-70
2022/09/29 09:31:06;;;;;;;1999.90;999.90;;;;;;;10.85;100.00;93169.81;6285844;22;20168;-70
2022/09/29 09:33:48;;;;;;;1999.90;999.90;;;;;;;10.75;100.00;93198.34;6260001;22;20222;-71
2022/09/29 09:36:24;;;;;;;1999.90;999.90;;;;;;;10.78;100.00;93202.88;6260052;22;20192;-71
2022/09/29 09:38:52;;;;;;;1999.90;999.90;;;;;;;10.87;100.00;93216.50;6260390;22;20183;-70
2022/09/29 09:41:21;;;;;;;1999.90;999.90;;;;;;;10.86;100.00;93204.84;6285579;22;20173;-70
2022/09/29 09:44:06;;;;;;;1999.90;999.90;;;;;;;11.03;100.00;93210.72;6260650;22;20172;-70
2022/09/29 09:46:40;;;;;;;1999.90;999.90;;;;;;;11.18;100.00;93208.84;6260365;22;20181;-72
2022/09/29 09:49:30;;;;;;;1999.90;999.90;;;;;;;11.38;100.00;93220.00;6260296;22;20194;-71
2022/09/29 09:52:07;;;;;;;1999.90;999.90;;;;;;;11.34;100.00;93214.72;6260675;22;20164;-70
2022/09/29 09:54:44;;;;;;;1999.90;999.90;;;;;;;11.57;100.00;93207.78;6260018;22;20227;-70
2022/09/29 09:57:15;;;;;;;1999.90;999.90;;;;;;;11.67;100.00;93212.03;6260073;22;20179;-71
2022/09/29 10:00:12;;;;;;;1999.90;999.90;;;;;;;11.41;100.00;93210.91;6285466;22;20180;-72
2022/09/29 10:02:45;;;;;;;1999.90;999.90;;;;;;;11.40;100.00;93220.31;6285643;22;20178;-70
2022/09/29 10:05:16;;;;;;;1999.90;999.90;;;;;;;10.96;100.00;93216.50;6260247;22;20169;-73
2022/09/29 10:07:44;;;;;;;1999.90;999.90;;;;;;;10.99;100.00;93231.94;6259911;22;20168;-71
2022/09/29 10:10:19;;;;;;;1999.90;999.90;;;;;;;11.02;100.00;93241.97;6260317;22;20168;-71
2022/09/29 10:12:44;;;;;;;1999.90;999.90;;;;;;;10.97;100.00;93253.50;6261362;22;20169;-74
2022/09/29 10:15:22;;;;;;;1999.90;999.90;;;;;;;11.03;100.00;93259.88;6261349;22;20145;-71
2022/09/29 10:17:58;;;;;;;1999.90;999.90;;;;;;;10.98;100.00;93238.63;6260850;22;20211;-71
2022/09/29 10:20:32;;;;;;;1999.90;999.90;;;;;;;10.95;100.00;93245.00;6261203;22;20190;-71
2022/09/29 10:23:30;;;;;;;1999.90;999.90;;;;;;;11.02;100.00;93244.69;6261536;22;20188;-69
2022/09/29 10:26:07;;;;;;;1999.90;999.90;;;;;;;11.23;100.00;93239.03;6261114;22;20173;-71
2022/09/29 10:28:44;;;;;;;1999.90;999.90;;;;;;;11.14;100.00;93235.59;6261633;22;20175;-71
2022/09/29 10:31:27;;;;;;;1999.90;999.90;;;;;;;11.11;100.00;93239.22;6261733;22;20229;-70
2022/09/29 10:34:15;;;;;;;1999.90;999.90;;;;;;;11.31;100.00;93250.38;6260749;22;20237;-74
2022/09/29 10:36:53;;;;;;;1999.90;999.90;;;;;;;11.18;100.00;93244.38;6261083;22;20419;-68
2022/09/29 10:39:48;;;;;;;1999.90;999.90;;;;;;;11.38;100.00;93250.06;6286746;22;20165;-70
2022/09/29 10:42:33;;;;;;;1999.90;999.90;;;;;;;11.26;100.00;93248.28;6241229;22;20153;-70
2022/09/29 10:45:10;;;;;;;1999.90;999.90;;;;;;;11.41;100.00;93266.31;6261233;22;20240;-70
2022/09/29 10:47:36;;;;;;;1999.90;999.90;;;;;;;11.66;100.00;93276.88;6286859;22;20362;-69
2022/09/29 10:50:30;;;;;;;1999.90;999.90;;;;;;;11.24;100.00;93259.69;6260785;22;20170;-70
2022/09/29 10:52:55;;;;;;;1999.90;999.90;;;;;;;11.14;100.00;93268.34;6257584;22;20176;-70
2022/09/29 10:55:25;;;;;;;1999.90;999.90;;;;;;;11.35;100.00;93273.63;6286626;22;20237;-69
2022/09/29 10:57:53;;;;;;;1999.90;999.90;;;;;;;11.47;100.00;93269.19;6260766;22;20489;-71
2022/09/29 11:00:25;;;;;;;1999.90;999.90;;;;;;;11.57;100.00;93263.22;6261452;22;20179;-73
2022/09/29 11:02:52;;;;;;;1999.90;999.90;;;;;;;11.64;100.00;93265.66;6261521;22;20214;-72
2022/09/29 11:05:22;;;;;;;1999.90;999.90;;;;;;;11.71;100.00;93259.09;6261258;22;20184;-71
2022/09/29 11:07:50;;;;;;;1999.90;999.90;;;;;;;11.94;100.00;93269.31;6261440;22;20197;-71